sensor_id;sensor_type;location;lat;lon;timestamp;pressure;altitude;pressure_sealevel;temperature;humidity
24892;BME280;12954;50.688;10.908;2023-02-22T00:02:05;95635.59;;;7.49;64.45
24892;BME280;12954;50.688;10.908;2023-02-22T00:04:51;95620.53;;;7.43;64.63
24892;BME280;12954;50.688;10.908;2023-02-22T00:07:20;95615.38;;;7.37;64.40
24892;BME280;12954;50.688;10.908;2023-02-22T00:09:49;95607.00;;;7.28;64.26
24892;BME280;12954;50.688;10.908;2023-02-22T00:12:19;95604.78;;;7.15;64.23
24892;BME280;12954;50.688;10.908;2023-02-22T00:14:47;95609.31;;;7.09;64.16
24892;BME280;12954;50.688;10.908;2023-02-22T00:17:16;95615.41;;;7.00;64.18
24892;BME280;12954;50.688;10.908;2023-02-22T00:19:47;95574.56;;;6.61;64.23
24892;BME280;12954;50.688;10.908;2023-02-22T00:22:16;95602.88;;;6.79;64.40
24892;BME280;12954;50.688;10.908;2023-02-22T00:24:46;95582.91;;;6.64;64.37
24892;BME280;12954;50.688;10.908;2023-02-22T00:27:16;95591.81;;;6.70;64.28
24892;BME280;12954;50.688;10.908;2023-02-22T00:29:46;95603.03;;;6.67;64.17
24892;BME280;12954;50.688;10.908;2023-02-22T00:32:14;95598.47;;;6.62;64.17
24892;BME280;12954;50.688;10.908;2023-02-22T00:34:43;95597.56;;;6.57;63.67
24892;BME280;12954;50.688;10.908;2023-02-22T00:37:12;95555.75;;;6.24;63.75
24892;BME280;12954;50.688;10.908;2023-02-22T00:39:40;95597.22;;;6.48;63.39
24892;BME280;12954;50.688;10.908;2023-02-22T00:42:08;95606.00;;;6.39;63.52
24892;BME280;12954;50.688;10.908;2023-02-22T00:44:37;95589.56;;;6.30;63.71
24892;BME280;12954;50.688;10.908;2023-02-22T00:47:07;95514.72;;;5.70;63.81
24892;BME280;12954;50.688;10.908;2023-02-22T00:49:36;95592.69;;;6.22;63.72
24892;BME280;12954;50.688;10.908;2023-02-22T00:52:04;95593.69;;;6.16;64.15
24892;BME280;12954;50.688;10.908;2023-02-22T00:54:33;95592.31;;;6.13;64.00
24892;BME280;12954;50.688;10.908;2023-02-22T00:57:02;95589.28;;;6.10;64.02
24892;BME280;12954;50.688;10.908;2023-02-22T00:59:31;95582.84;;;6.06;63.94
24892;BME280;12954;50.688;10.908;2023-02-22T01:01:59;95590.31;;;6.04;63.94
24892;BME280;12954;50.688;10.908;2023-02-22T01:04:30;95579.31;;;6.00;63.85
24892;BME280;12954;50.688;10.908;2023-02-22T01:06:58;95572.81;;;5.96;64.03
24892;BME280;12954;50.688;10.908;2023-02-22T01:09:27;95575.75;;;5.95;63.65
24892;BME280;12954;50.688;10.908;2023-02-22T01:11:56;95578.13;;;5.91;63.73
24892;BME280;12954;50.688;10.908;2023-02-22T01:14:25;95561.94;;;5.81;63.62
24892;BME280;12954;50.688;10.908;2023-02-22T01:16:55;95570.16;;;5.75;63.64
24892;BME280;12954;50.688;10.908;2023-02-22T01:19:23;95571.59;;;5.82;63.60
24892;BME280;12954;50.688;10.908;2023-02-22T01:21:53;95565.94;;;5.79;63.56
24892;BME280;12954;50.688;10.908;2023-02-22T01:24:21;95570.16;;;5.75;63.63
24892;BME280;12954;50.688;10.908;2023-02-22T01:26:50;95573.84;;;5.69;63.39
24892;BME280;12954;50.688;10.908;2023-02-22T01:29:19;95566.81;;;5.63;63.80
24892;BME280;12954;50.688;10.908;2023-02-22T01:31:53;95572.94;;;5.63;63.65
24892;BME280;12954;50.688;10.908;2023-02-22T01:34:22;95569.19;;;5.42;63.31
24892;BME280;12954;50.688;10.908;2023-02-22T01:36:52;95538.47;;;5.23;63.68
24892;BME280;12954;50.688;10.908;2023-02-22T01:39:21;95554.19;;;5.36;63.87
24892;BME280;12954;50.688;10.908;2023-02-22T01:41:49;95564.78;;;5.31;63.98
24892;BME280;12954;50.688;10.908;2023-02-22T01:44:27;95452.16;;;4.68;63.68
24892;BME280;12954;50.688;10.908;2023-02-22T01:46:57;95564.22;;;5.29;63.67
24892;BME280;12954;50.688;10.908;2023-02-22T01:49:28;95544.16;;;5.10;63.72
24892;BME280;12954;50.688;10.908;2023-02-22T01:52:05;95564.47;;;5.28;63.48
24892;BME280;12954;50.688;10.908;2023-02-22T01:54:38;95547.47;;;5.17;63.51
24892;BME280;12954;50.688;10.908;2023-02-22T01:57:17;95558.16;;;5.17;63.55
24892;BME280;12954;50.688;10.908;2023-02-22T01:59:50;95560.53;;;5.14;63.82
24892;BME280;12954;50.688;10.908;2023-02-22T02:02:19;95499.03;;;4.75;63.38
24892;BME280;12954;50.688;10.908;2023-02-22T02:04:48;95561.28;;;5.09;63.43
24892;BME280;12954;50.688;10.908;2023-02-22T02:07:19;95543.31;;;4.88;63.42
24892;BME280;12954;50.688;10.908;2023-02-22T02:09:52;95487.72;;;4.52;63.34
24892;BME280;12954;50.688;10.908;2023-02-22T02:12:23;95559.34;;;4.88;63.74
24892;BME280;12954;50.688;10.908;2023-02-22T02:14:52;95539.91;;;4.76;63.80
24892;BME280;12954;50.688;10.908;2023-02-22T02:17:22;95551.25;;;4.83;64.05
24892;BME280;12954;50.688;10.908;2023-02-22T02:19:56;95537.03;;;4.77;63.50
24892;BME280;12954;50.688;10.908;2023-02-22T02:22:39;95550.44;;;4.82;63.68
24892;BME280;12954;50.688;10.908;2023-02-22T02:25:29;95554.16;;;4.81;63.76
24892;BME280;12954;50.688;10.908;2023-02-22T02:28:27;95546.41;;;4.80;63.88
24892;BME280;12954;50.688;10.908;2023-02-22T02:31:24;95541.63;;;4.82;63.97
24892;BME280;12954;50.688;10.908;2023-02-22T02:34:02;95536.22;;;4.77;64.06
24892;BME280;12954;50.688;10.908;2023-02-22T02:36:35;95521.28;;;4.81;64.14
24892;BME280;12954;50.688;10.908;2023-02-22T02:39:11;95534.25;;;4.89;64.08
24892;BME280;12954;50.688;10.908;2023-02-22T02:41:47;95528.91;;;4.89;64.11
24892;BME280;12954;50.688;10.908;2023-02-22T02:44:22;95526.22;;;4.89;64.03
24892;BME280;12954;50.688;10.908;2023-02-22T02:46:57;95530.38;;;4.80;64.30
24892;BME280;12954;50.688;10.908;2023-02-22T02:49:32;95526.06;;;4.79;64.08
24892;BME280;12954;50.688;10.908;2023-02-22T02:52:03;95518.22;;;4.72;64.02
24892;BME280;12954;50.688;10.908;2023-02-22T02:54:33;95530.03;;;4.76;64.12
24892;BME280;12954;50.688;10.908;2023-02-22T02:57:04;95526.22;;;4.72;64.11
24892;BME280;12954;50.688;10.908;2023-02-22T02:59:35;95524.38;;;4.73;64.39
24892;BME280;12954;50.688;10.908;2023-02-22T03:02:15;95521.69;;;4.73;64.19
24892;BME280;12954;50.688;10.908;2023-02-22T03:04:55;95490.38;;;4.52;64.08
24892;BME280;12954;50.688;10.908;2023-02-22T03:07:37;95515.47;;;4.67;64.40
24892;BME280;12954;50.688;10.908;2023-02-22T03:10:21;95517.59;;;4.65;63.85
24892;BME280;12954;50.688;10.908;2023-02-22T03:12:59;95507.00;;;4.54;64.18
24892;BME280;12954;50.688;10.908;2023-02-22T03:15:36;95515.00;;;4.54;64.22
24892;BME280;12954;50.688;10.908;2023-02-22T03:18:15;95475.13;;;4.30;64.14
24892;BME280;12954;50.688;10.908;2023-02-22T03:20:52;95494.44;;;4.37;64.22
24892;BME280;12954;50.688;10.908;2023-02-22T03:23:25;95481.00;;;4.16;64.16
24892;BME280;12954;50.688;10.908;2023-02-22T03:25:58;95515.31;;;4.40;64.13
24892;BME280;12954;50.688;10.908;2023-02-22T03:28:29;95506.75;;;4.38;63.96
24892;BME280;12954;50.688;10.908;2023-02-22T03:30:59;95455.06;;;4.00;63.81
24892;BME280;12954;50.688;10.908;2023-02-22T03:33:34;95514.69;;;4.33;63.92
24892;BME280;12954;50.688;10.908;2023-02-22T03:36:12;95506.91;;;4.32;64.19
24892;BME280;12954;50.688;10.908;2023-02-22T03:38:43;95504.22;;;4.32;64.16
24892;BME280;12954;50.688;10.908;2023-02-22T03:41:15;95426.84;;;3.87;63.91
24892;BME280;12954;50.688;10.908;2023-02-22T03:43:49;95455.00;;;3.95;63.70
24892;BME280;12954;50.688;10.908;2023-02-22T03:46:21;95488.25;;;4.20;63.88
24892;BME280;12954;50.688;10.908;2023-02-22T03:48:54;95470.59;;;4.03;63.62
24892;BME280;12954;50.688;10.908;2023-02-22T03:51:27;95471.34;;;3.98;64.12
24892;BME280;12954;50.688;10.908;2023-02-22T03:53:56;95508.66;;;4.10;63.90
24892;BME280;12954;50.688;10.908;2023-02-22T03:56:32;95487.34;;;3.98;63.86
24892;BME280;12954;50.688;10.908;2023-02-22T03:59:04;95506.34;;;4.02;64.03
24892;BME280;12954;50.688;10.908;2023-02-22T04:01:33;95490.03;;;3.98;63.96
24892;BME280;12954;50.688;10.908;2023-02-22T04:04:03;95504.41;;;3.97;63.90
24892;BME280;12954;50.688;10.908;2023-02-22T04:06:33;95464.72;;;3.72;64.27
24892;BME280;12954;50.688;10.908;2023-02-22T04:09:01;95490.50;;;3.95;64.12
24892;BME280;12954;50.688;10.908;2023-02-22T04:11:30;95482.88;;;3.87;64.47
24892;BME280;12954;50.688;10.908;2023-02-22T04:13:58;95432.47;;;3.57;64.22
24892;BME280;12954;50.688;10.908;2023-02-22T04:16:27;95487.84;;;3.95;63.75
24892;BME280;12954;50.688;10.908;2023-02-22T04:18:55;95487.50;;;3.92;63.74
24892;BME280;12954;50.688;10.908;2023-02-22T04:21:23;95480.78;;;3.89;64.02
24892;BME280;12954;50.688;10.908;2023-02-22T04:23:54;95462.31;;;3.71;63.68
24892;BME280;12954;50.688;10.908;2023-02-22T04:26:22;95483.34;;;3.84;63.88
24892;BME280;12954;50.688;10.908;2023-02-22T04:28:51;95480.19;;;3.87;63.78
24892;BME280;12954;50.688;10.908;2023-02-22T04:31:19;95479.63;;;3.85;63.70
24892;BME280;12954;50.688;10.908;2023-02-22T04:33:47;95480.13;;;3.82;63.52
24892;BME280;12954;50.688;10.908;2023-02-22T04:36:16;95470.75;;;3.79;63.75
24892;BME280;12954;50.688;10.908;2023-02-22T04:38:44;95478.97;;;3.78;64.16
24892;BME280;12954;50.688;10.908;2023-02-22T04:41:16;95479.47;;;3.75;63.95
24892;BME280;12954;50.688;10.908;2023-02-22T04:43:45;95474.38;;;3.73;63.99
24892;BME280;12954;50.688;10.908;2023-02-22T04:46:13;95483.19;;;3.74;63.88
24892;BME280;12954;50.688;10.908;2023-02-22T04:48:42;95461.31;;;3.60;63.75
24892;BME280;12954;50.688;10.908;2023-02-22T04:51:10;95478.31;;;3.71;63.99
24892;BME280;12954;50.688;10.908;2023-02-22T04:53:40;95479.38;;;3.70;64.16
24892;BME280;12954;50.688;10.908;2023-02-22T04:56:09;95459.50;;;3.49;64.07
24892;BME280;12954;50.688;10.908;2023-02-22T04:58:39;95464.91;;;3.66;64.07
24892;BME280;12954;50.688;10.908;2023-02-22T05:01:07;95431.69;;;3.17;63.92
24892;BME280;12954;50.688;10.908;2023-02-22T05:03:36;95472.78;;;3.61;64.05
24892;BME280;12954;50.688;10.908;2023-02-22T05:06:05;95460.53;;;3.60;63.80
24892;BME280;12954;50.688;10.908;2023-02-22T05:08:34;95449.56;;;3.45;64.01
24892;BME280;12954;50.688;10.908;2023-02-22T05:11:02;95456.19;;;3.42;64.14
24892;BME280;12954;50.688;10.908;2023-02-22T05:13:31;95453.34;;;3.49;64.12
24892;BME280;12954;50.688;10.908;2023-02-22T05:16:01;95452.31;;;3.50;63.98
24892;BME280;12954;50.688;10.908;2023-02-22T05:18:30;95451.28;;;3.51;64.13
24892;BME280;12954;50.688;10.908;2023-02-22T05:20:58;95423.19;;;3.31;63.92
24892;BME280;12954;50.688;10.908;2023-02-22T05:23:26;95449.00;;;3.43;64.11
24892;BME280;12954;50.688;10.908;2023-02-22T05:25:55;95449.00;;;3.43;64.05
24892;BME280;12954;50.688;10.908;2023-02-22T05:28:24;95441.28;;;3.29;63.90
24892;BME280;12954;50.688;10.908;2023-02-22T05:30:52;95446.22;;;3.38;64.13
24892;BME280;12954;50.688;10.908;2023-02-22T05:33:22;95440.88;;;3.38;63.96
24892;BME280;12954;50.688;10.908;2023-02-22T05:35:51;95404.28;;;3.05;63.83
24892;BME280;12954;50.688;10.908;2023-02-22T05:38:21;95443.00;;;3.36;63.96
24892;BME280;12954;50.688;10.908;2023-02-22T05:40:50;95445.31;;;3.32;63.98
24892;BME280;12954;50.688;10.908;2023-02-22T05:43:19;95418.03;;;3.13;64.04
24892;BME280;12954;50.688;10.908;2023-02-22T05:45:47;95437.31;;;3.32;63.99
24892;BME280;12954;50.688;10.908;2023-02-22T05:48:15;95430.84;;;3.28;64.13
24892;BME280;12954;50.688;10.908;2023-02-22T05:50:45;95440.72;;;3.27;64.20
24892;BME280;12954;50.688;10.908;2023-02-22T05:53:15;95434.56;;;3.27;64.38
24892;BME280;12954;50.688;10.908;2023-02-22T05:55:44;95416.28;;;3.19;64.20
24892;BME280;12954;50.688;10.908;2023-02-22T05:58:12;95432.56;;;3.34;64.25
24892;BME280;12954;50.688;10.908;2023-02-22T06:00:41;95427.47;;;3.32;64.43
24892;BME280;12954;50.688;10.908;2023-02-22T06:03:10;95426.66;;;3.32;64.45
24892;BME280;12954;50.688;10.908;2023-02-22T06:05:39;95431.66;;;3.28;64.41
24892;BME280;12954;50.688;10.908;2023-02-22T06:08:09;95432.13;;;3.25;64.24
24892;BME280;12954;50.688;10.908;2023-02-22T06:10:37;95414.31;;;3.14;64.54
24892;BME280;12954;50.688;10.908;2023-02-22T06:13:06;95432.13;;;3.25;64.71
24892;BME280;12954;50.688;10.908;2023-02-22T06:15:34;95427.13;;;3.29;64.62
24892;BME280;12954;50.688;10.908;2023-02-22T06:18:03;95430.53;;;3.24;65.09
24892;BME280;12954;50.688;10.908;2023-02-22T06:20:31;95371.44;;;2.88;64.68
24892;BME280;12954;50.688;10.908;2023-02-22T06:23:01;95439.66;;;3.28;65.16
24892;BME280;12954;50.688;10.908;2023-02-22T06:25:31;95394.44;;;3.05;64.86
24892;BME280;12954;50.688;10.908;2023-02-22T06:28:00;95428.97;;;3.28;65.01
24892;BME280;12954;50.688;10.908;2023-02-22T06:30:29;95440.31;;;3.36;65.03
24892;BME280;12954;50.688;10.908;2023-02-22T06:32:57;95440.81;;;3.32;65.33
24892;BME280;12954;50.688;10.908;2023-02-22T06:35:26;95385.78;;;2.98;65.00
24892;BME280;12954;50.688;10.908;2023-02-22T06:37:54;95383.59;;;2.95;65.25
24892;BME280;12954;50.688;10.908;2023-02-22T06:40:23;95435.00;;;3.36;65.10
24892;BME280;12954;50.688;10.908;2023-02-22T06:42:57;95404.13;;;3.11;65.39
24892;BME280;12954;50.688;10.908;2023-02-22T06:45:26;95445.75;;;3.41;65.25
24892;BME280;12954;50.688;10.908;2023-02-22T06:47:54;95442.03;;;3.42;65.61
24892;BME280;12954;50.688;10.908;2023-02-22T06:50:24;95443.75;;;3.48;65.35
24892;BME280;12954;50.688;10.908;2023-02-22T06:52:55;95442.47;;;3.50;65.69
24892;BME280;12954;50.688;10.908;2023-02-22T06:55:25;95439.66;;;3.57;65.79
24892;BME280;12954;50.688;10.908;2023-02-22T06:57:56;95440.56;;;3.62;65.80
24892;BME280;12954;50.688;10.908;2023-02-22T07:00:26;95440.66;;;3.67;65.98
24892;BME280;12954;50.688;10.908;2023-02-22T07:02:55;95439.94;;;3.72;66.40
24892;BME280;12954;50.688;10.908;2023-02-22T07:05:24;95363.56;;;3.38;65.99
24892;BME280;12954;50.688;10.908;2023-02-22T07:07:55;95383.06;;;3.55;66.79
24892;BME280;12954;50.688;10.908;2023-02-22T07:10:30;95405.75;;;3.69;67.08
24892;BME280;12954;50.688;10.908;2023-02-22T07:13:01;95431.63;;;4.02;66.87
24892;BME280;12954;50.688;10.908;2023-02-22T07:15:31;95445.38;;;4.10;67.51
24892;BME280;12954;50.688;10.908;2023-02-22T07:18:00;95440.19;;;4.20;67.36
24892;BME280;12954;50.688;10.908;2023-02-22T07:20:29;95442.00;;;4.31;67.62
24892;BME280;12954;50.688;10.908;2023-02-22T07:22:58;95440.88;;;4.44;67.45
24892;BME280;12954;50.688;10.908;2023-02-22T07:25:27;95430.34;;;4.37;68.14
24892;BME280;12954;50.688;10.908;2023-02-22T07:27:55;95433.91;;;4.60;68.22
24892;BME280;12954;50.688;10.908;2023-02-22T07:30:27;95418.59;;;4.55;68.44
24892;BME280;12954;50.688;10.908;2023-02-22T07:32:58;95433.78;;;4.71;68.29
24892;BME280;12954;50.688;10.908;2023-02-22T07:35:28;95387.50;;;4.49;68.55
24892;BME280;12954;50.688;10.908;2023-02-22T07:37:57;95447.41;;;4.91;68.61
24892;BME280;12954;50.688;10.908;2023-02-22T07:40:27;95447.47;;;4.96;68.80
24892;BME280;12954;50.688;10.908;2023-02-22T07:42:57;95444.13;;;5.06;68.78
24892;BME280;12954;50.688;10.908;2023-02-22T07:45:29;95436.22;;;5.16;69.03
24892;BME280;12954;50.688;10.908;2023-02-22T07:48:00;95386.81;;;4.97;69.11
24892;BME280;12954;50.688;10.908;2023-02-22T07:50:30;95407.31;;;5.13;69.05
24892;BME280;12954;50.688;10.908;2023-02-22T07:53:00;95447.22;;;5.41;69.40
24892;BME280;12954;50.688;10.908;2023-02-22T07:55:30;95431.78;;;5.48;69.30
24892;BME280;12954;50.688;10.908;2023-02-22T07:58:01;95394.72;;;5.35;69.72
24892;BME280;12954;50.688;10.908;2023-02-22T08:00:33;95429.75;;;5.61;69.32
24892;BME280;12954;50.688;10.908;2023-02-22T08:03:05;95433.72;;;5.80;69.44
24892;BME280;12954;50.688;10.908;2023-02-22T08:05:35;95435.63;;;5.84;69.58
24892;BME280;12954;50.688;10.908;2023-02-22T08:08:05;95433.28;;;5.93;69.71
24892;BME280;12954;50.688;10.908;2023-02-22T08:10:34;95432.25;;;5.94;69.88
24892;BME280;12954;50.688;10.908;2023-02-22T08:13:04;95433.09;;;5.99;69.93
24892;BME280;12954;50.688;10.908;2023-02-22T08:15:36;95435.13;;;6.14;69.91
24892;BME280;12954;50.688;10.908;2023-02-22T08:18:06;95402.91;;;6.09;69.86
24892;BME280;12954;50.688;10.908;2023-02-22T08:20:35;95432.06;;;6.32;70.04
24892;BME280;12954;50.688;10.908;2023-02-22T08:23:05;95416.78;;;6.33;70.25
24892;BME280;12954;50.688;10.908;2023-02-22T08:25:34;95434.84;;;6.47;69.99
24892;BME280;12954;50.688;10.908;2023-02-22T08:28:04;95432.22;;;6.57;70.32
24892;BME280;12954;50.688;10.908;2023-02-22T08:30:35;95428.00;;;6.66;70.32
24892;BME280;12954;50.688;10.908;2023-02-22T08:33:06;95422.72;;;6.77;70.23
24892;BME280;12954;50.688;10.908;2023-02-22T08:35:35;95429.75;;;6.88;70.24
24892;BME280;12954;50.688;10.908;2023-02-22T08:38:05;95428.78;;;7.09;69.72
24892;BME280;12954;50.688;10.908;2023-02-22T08:40:35;95433.88;;;7.10;69.78
24892;BME280;12954;50.688;10.908;2023-02-22T08:43:05;95436.59;;;7.20;69.87
24892;BME280;12954;50.688;10.908;2023-02-22T08:45:35;95430.47;;;7.30;69.45
24892;BME280;12954;50.688;10.908;2023-02-22T08:48:04;95419.53;;;7.42;69.03
24892;BME280;12954;50.688;10.908;2023-02-22T08:50:33;95428.66;;;7.51;68.93
24892;BME280;12954;50.688;10.908;2023-02-22T08:53:02;95436.47;;;7.57;68.74
24892;BME280;12954;50.688;10.908;2023-02-22T08:55:35;95429.00;;;7.69;68.47
24892;BME280;12954;50.688;10.908;2023-02-22T08:58:05;95414.22;;;7.67;68.33
24892;BME280;12954;50.688;10.908;2023-02-22T09:00:38;95437.09;;;7.85;67.85
24892;BME280;12954;50.688;10.908;2023-02-22T09:03:08;95435.50;;;7.89;67.61
24892;BME280;12954;50.688;10.908;2023-02-22T09:05:39;95432.00;;;7.93;67.35
24892;BME280;12954;50.688;10.908;2023-02-22T09:08:08;95433.34;;;8.01;67.35
24892;BME280;12954;50.688;10.908;2023-02-22T09:10:36;95431.22;;;8.13;66.80
24892;BME280;12954;50.688;10.908;2023-02-22T09:13:04;95437.66;;;8.22;66.17
24892;BME280;12954;50.688;10.908;2023-02-22T09:15:34;95430.69;;;8.26;65.80
24892;BME280;12954;50.688;10.908;2023-02-22T09:18:05;95435.00;;;8.27;65.75
24892;BME280;12954;50.688;10.908;2023-02-22T09:20:34;95433.09;;;8.43;65.09
24892;BME280;12954;50.688;10.908;2023-02-22T09:23:04;95426.94;;;8.27;65.53
24892;BME280;12954;50.688;10.908;2023-02-22T09:25:33;95434.19;;;8.42;65.49
24892;BME280;12954;50.688;10.908;2023-02-22T09:28:01;95434.44;;;8.45;65.47
24892;BME280;12954;50.688;10.908;2023-02-22T09:30:32;95427.19;;;8.46;65.33
24892;BME280;12954;50.688;10.908;2023-02-22T09:33:04;95430.13;;;8.54;65.14
24892;BME280;12954;50.688;10.908;2023-02-22T09:35:36;95422.06;;;8.69;64.66
24892;BME280;12954;50.688;10.908;2023-02-22T09:38:09;95424.19;;;8.72;64.42
24892;BME280;12954;50.688;10.908;2023-02-22T09:40:40;95397.88;;;8.54;64.51
24892;BME280;12954;50.688;10.908;2023-02-22T09:43:22;95419.91;;;8.76;64.42
24892;BME280;12954;50.688;10.908;2023-02-22T09:46:07;95419.59;;;8.88;64.25
24892;BME280;12954;50.688;10.908;2023-02-22T09:48:53;95390.06;;;8.68;64.34
24892;BME280;12954;50.688;10.908;2023-02-22T09:51:26;95415.25;;;9.02;63.83
24892;BME280;12954;50.688;10.908;2023-02-22T09:53:59;95413.09;;;9.04;64.09
24892;BME280;12954;50.688;10.908;2023-02-22T09:56:30;95412.25;;;9.19;63.58
24892;BME280;12954;50.688;10.908;2023-02-22T09:59:02;95397.75;;;9.20;63.16
24892;BME280;12954;50.688;10.908;2023-02-22T10:01:37;95399.34;;;9.21;63.10
24892;BME280;12954;50.688;10.908;2023-02-22T10:04:16;95402.25;;;9.34;62.75
24892;BME280;12954;50.688;10.908;2023-02-22T10:06:58;95401.41;;;9.39;62.51
24892;BME280;12954;50.688;10.908;2023-02-22T10:09:34;95394.47;;;9.28;62.67
24892;BME280;12954;50.688;10.908;2023-02-22T10:12:10;95407.59;;;9.39;62.75
24892;BME280;12954;50.688;10.908;2023-02-22T10:14:55;95318.44;;;8.92;62.44
24892;BME280;12954;50.688;10.908;2023-02-22T10:17:33;95385.78;;;9.46;62.31
24892;BME280;12954;50.688;10.908;2023-02-22T10:20:17;95356.75;;;9.33;62.04
24892;BME280;12954;50.688;10.908;2023-02-22T10:23:01;95361.03;;;9.39;61.87
24892;BME280;12954;50.688;10.908;2023-02-22T10:25:35;95389.47;;;9.60;62.03
24892;BME280;12954;50.688;10.908;2023-02-22T10:28:09;95385.91;;;9.70;61.27
24892;BME280;12954;50.688;10.908;2023-02-22T10:30:42;95392.56;;;9.82;60.84
24892;BME280;12954;50.688;10.908;2023-02-22T10:33:14;95371.44;;;9.94;59.66
24892;BME280;12954;50.688;10.908;2023-02-22T10:35:46;95376.06;;;9.94;59.78
24892;BME280;12954;50.688;10.908;2023-02-22T10:38:17;95385.47;;;9.96;59.84
24892;BME280;12954;50.688;10.908;2023-02-22T10:40:49;95347.81;;;9.86;59.37
24892;BME280;12954;50.688;10.908;2023-02-22T10:43:22;95384.84;;;10.04;59.60
24892;BME280;12954;50.688;10.908;2023-02-22T10:45:53;95378.34;;;10.11;59.49
24892;BME280;12954;50.688;10.908;2023-02-22T10:48:23;95373.97;;;10.20;59.55
24892;BME280;12954;50.688;10.908;2023-02-22T10:50:59;95375.47;;;10.31;59.29
24892;BME280;12954;50.688;10.908;2023-02-22T10:53:28;95371.06;;;10.45;58.62
24892;BME280;12954;50.688;10.908;2023-02-22T10:56:08;95375.31;;;10.51;58.18
24892;BME280;12954;50.688;10.908;2023-02-22T10:58:41;95367.19;;;10.56;58.48
24892;BME280;12954;50.688;10.908;2023-02-22T11:01:22;95370.88;;;10.65;57.88
24892;BME280;12954;50.688;10.908;2023-02-22T11:03:58;95356.28;;;10.66;57.54
24892;BME280;12954;50.688;10.908;2023-02-22T11:06:29;95325.88;;;10.61;57.51
24892;BME280;12954;50.688;10.908;2023-02-22T11:09:07;95366.06;;;10.86;56.84
24892;BME280;12954;50.688;10.908;2023-02-22T11:11:38;95363.09;;;10.87;57.10
24892;BME280;12954;50.688;10.908;2023-02-22T11:14:09;95367.09;;;10.90;56.90
24892;BME280;12954;50.688;10.908;2023-02-22T11:16:40;95346.91;;;10.87;56.59
24892;BME280;12954;50.688;10.908;2023-02-22T11:19:18;95346.75;;;10.97;56.31
24892;BME280;12954;50.688;10.908;2023-02-22T11:21:52;95347.41;;;10.89;55.98
24892;BME280;12954;50.688;10.908;2023-02-22T11:24:23;95355.84;;;11.06;56.00
24892;BME280;12954;50.688;10.908;2023-02-22T11:27:00;95335.06;;;11.07;55.68
24892;BME280;12954;50.688;10.908;2023-02-22T11:29:33;95345.91;;;11.26;55.51
24892;BME280;12954;50.688;10.908;2023-02-22T11:32:11;95345.75;;;11.36;55.19
24892;BME280;12954;50.688;10.908;2023-02-22T11:34:41;95345.13;;;11.44;54.79
24892;BME280;12954;50.688;10.908;2023-02-22T11:37:26;95314.47;;;11.35;54.38
24892;BME280;12954;50.688;10.908;2023-02-22T11:40:10;95335.91;;;11.50;54.50
24892;BME280;12954;50.688;10.908;2023-02-22T11:42:41;95329.69;;;11.49;54.50
24892;BME280;12954;50.688;10.908;2023-02-22T11:45:16;95329.28;;;11.56;54.24
24892;BME280;12954;50.688;10.908;2023-02-22T11:47:49;95325.97;;;11.64;53.99
24892;BME280;12954;50.688;10.908;2023-02-22T11:50:25;95323.19;;;11.69;53.56
24892;BME280;12954;50.688;10.908;2023-02-22T11:53:23;95322.59;;;11.72;53.11
24892;BME280;12954;50.688;10.908;2023-02-22T11:56:03;95317.69;;;11.74;53.52
24892;BME280;12954;50.688;10.908;2023-02-22T11:58:42;95317.91;;;11.78;53.32
24892;BME280;12954;50.688;10.908;2023-02-22T12:01:21;95304.31;;;11.83;53.05
24892;BME280;12954;50.688;10.908;2023-02-22T12:04:33;95316.88;;;11.92;52.29
24892;BME280;12954;50.688;10.908;2023-02-22T12:07:15;95318.97;;;11.95;52.06
24892;BME280;12954;50.688;10.908;2023-02-22T12:09:50;95308.63;;;12.02;52.38
24892;BME280;12954;50.688;10.908;2023-02-22T12:12:27;95309.38;;;12.03;52.07
24892;BME280;12954;50.688;10.908;2023-02-22T12:15:04;95306.69;;;12.03;52.33
24892;BME280;12954;50.688;10.908;2023-02-22T12:17:44;95314.94;;;12.11;52.29
24892;BME280;12954;50.688;10.908;2023-02-22T12:20:30;95302.91;;;12.17;52.15
24892;BME280;12954;50.688;10.908;2023-02-22T12:23:04;95310.44;;;12.20;52.01
24892;BME280;12954;50.688;10.908;2023-02-22T12:25:39;95300.66;;;12.24;51.88
24892;BME280;12954;50.688;10.908;2023-02-22T12:28:17;95307.16;;;12.23;51.29
24892;BME280;12954;50.688;10.908;2023-02-22T12:30:55;95250.31;;;11.96;51.70
24892;BME280;12954;50.688;10.908;2023-02-22T12:33:29;95280.41;;;12.22;51.66
24892;BME280;12954;50.688;10.908;2023-02-22T12:36:02;95295.41;;;12.47;51.07
24892;BME280;12954;50.688;10.908;2023-02-22T12:38:36;95295.41;;;12.47;50.96
24892;BME280;12954;50.688;10.908;2023-02-22T12:41:11;95294.50;;;12.51;51.01
24892;BME280;12954;50.688;10.908;2023-02-22T12:43:47;95294.94;;;12.58;50.93
24892;BME280;12954;50.688;10.908;2023-02-22T12:46:21;95293.84;;;12.73;49.78
24892;BME280;12954;50.688;10.908;2023-02-22T12:48:56;95298.63;;;12.62;49.93
24892;BME280;12954;50.688;10.908;2023-02-22T12:51:32;95284.91;;;12.59;49.37
24892;BME280;12954;50.688;10.908;2023-02-22T12:54:09;95299.25;;;12.73;49.59
24892;BME280;12954;50.688;10.908;2023-02-22T12:56:47;95298.66;;;12.76;49.31
24892;BME280;12954;50.688;10.908;2023-02-22T12:59:21;95297.97;;;12.84;48.83
24892;BME280;12954;50.688;10.908;2023-02-22T13:01:57;95292.94;;;12.91;48.74
24892;BME280;12954;50.688;10.908;2023-02-22T13:04:28;95288.53;;;12.95;48.66
24892;BME280;12954;50.688;10.908;2023-02-22T13:07:17;95287.72;;;13.08;47.01
24892;BME280;12954;50.688;10.908;2023-02-22T13:09:58;95291.72;;;12.97;47.32
24892;BME280;12954;50.688;10.908;2023-02-22T13:12:37;95277.38;;;12.97;47.40
24892;BME280;12954;50.688;10.908;2023-02-22T13:15:15;95280.41;;;12.95;47.33
24892;BME280;12954;50.688;10.908;2023-02-22T13:17:52;95282.09;;;12.91;47.02
24892;BME280;12954;50.688;10.908;2023-02-22T13:20:29;95276.50;;;12.88;47.12
24892;BME280;12954;50.688;10.908;2023-02-22T13:23:05;95274.50;;;12.93;47.09
24892;BME280;12954;50.688;10.908;2023-02-22T13:25:43;95277.09;;;12.98;47.14